createdAt,value
2023-05-20T00:00:04.331Z,12.30
2023-05-20T00:02:54.510Z,13.20
2023-05-20T00:05:22.666Z,12.60
2023-05-20T00:07:50.696Z,11.70
2023-05-20T00:10:18.786Z,12.20
2023-05-20T00:12:46.782Z,12.50
2023-05-20T00:15:14.943Z,13.30
2023-05-20T00:17:43.096Z,13.60
2023-05-20T00:20:11.621Z,13.60
2023-05-20T00:22:39.986Z,13.80
2023-05-20T00:25:08.599Z,12.90
2023-05-20T00:27:36.670Z,11.90
2023-05-20T00:30:05.242Z,13.10
2023-05-20T00:32:35.030Z,12.20
2023-05-20T00:35:03.995Z,11.90
2023-05-20T00:37:32.214Z,12.70
2023-05-20T00:40:00.358Z,13.00
2023-05-20T00:42:29.144Z,13.50
2023-05-20T00:45:00.638Z,12.90
2023-05-20T00:47:32.879Z,13.00
2023-05-20T00:50:02.125Z,12.70
2023-05-20T00:52:32.336Z,12.90
2023-05-20T00:55:01.251Z,12.00
2023-05-20T00:57:30.127Z,12.90
2023-05-20T00:59:58.947Z,13.60
2023-05-20T01:02:27.506Z,13.00
2023-05-20T01:04:56.980Z,11.30
2023-05-20T01:07:26.077Z,12.50
2023-05-20T01:09:56.210Z,12.80
2023-05-20T01:12:32.322Z,11.70
2023-05-20T01:15:11.846Z,12.70
2023-05-20T01:17:45.392Z,12.80
2023-05-20T01:20:15.455Z,13.10
2023-05-20T01:22:49.569Z,13.30
2023-05-20T01:25:17.539Z,12.00
2023-05-20T01:27:49.331Z,12.20
2023-05-20T01:30:17.758Z,12.20
2023-05-20T01:32:52.940Z,12.20
2023-05-20T01:35:23.197Z,12.40
2023-05-20T01:37:53.753Z,12.10
2023-05-20T01:40:22.382Z,12.30
2023-05-20T01:42:53.504Z,12.70
2023-05-20T01:45:23.466Z,12.50
2023-05-20T01:47:52.331Z,11.80
2023-05-20T01:50:20.457Z,12.20
2023-05-20T01:52:48.520Z,11.60
2023-05-20T01:55:16.655Z,12.00
2023-05-20T01:57:45.573Z,12.80
2023-05-20T02:00:13.860Z,12.50
2023-05-20T02:02:42.192Z,11.90
2023-05-20T02:05:12.966Z,11.70
2023-05-20T02:07:43.529Z,11.40
2023-05-20T02:10:11.923Z,11.80
2023-05-20T02:12:40.021Z,12.00
2023-05-20T02:15:08.930Z,12.10
2023-05-20T02:17:37.346Z,11.10
2023-05-20T02:20:07.752Z,11.60
2023-05-20T02:22:36.266Z,11.60
2023-05-20T02:25:05.404Z,11.20
2023-05-20T02:27:33.513Z,11.00
2023-05-20T02:30:01.530Z,11.20
2023-05-20T02:32:29.744Z,11.70
2023-05-20T02:34:57.836Z,11.80
2023-05-20T02:37:27.173Z,11.90
2023-05-20T02:39:56.300Z,12.30
2023-05-20T02:42:25.391Z,12.40
2023-05-20T02:44:56.601Z,11.40
2023-05-20T02:47:25.995Z,11.80
2023-05-20T02:49:54.082Z,11.90
2023-05-20T02:52:22.669Z,11.70
2023-05-20T02:54:50.879Z,11.00
2023-05-20T02:57:20.644Z,11.40
2023-05-20T02:59:49.092Z,12.50
2023-05-20T03:02:18.451Z,12.50
2023-05-20T03:04:47.352Z,11.20
2023-05-20T03:07:19.674Z,11.50
2023-05-20T03:09:48.081Z,11.50
2023-05-20T03:12:16.750Z,12.10
2023-05-20T03:14:45.789Z,11.40
2023-05-20T03:17:14.500Z,10.90
2023-05-20T03:19:45.018Z,11.40
2023-05-20T03:22:13.167Z,11.20
2023-05-20T03:24:43.056Z,11.40
2023-05-20T03:27:14.381Z,10.90
2023-05-20T03:29:44.646Z,11.40
2023-05-20T03:32:12.650Z,10.50
2023-05-20T03:34:40.885Z,10.70
2023-05-20T03:37:08.856Z,11.20
2023-05-20T03:39:37.168Z,11.30
2023-05-20T03:42:05.679Z,11.10
2023-05-20T03:44:33.914Z,12.00
2023-05-20T03:47:02.312Z,11.10
2023-05-20T03:49:31.328Z,11.80
2023-05-20T03:51:59.432Z,11.90
2023-05-20T03:54:28.153Z,10.60
2023-05-20T03:56:56.664Z,11.10
2023-05-20T03:59:24.852Z,9.90
2023-05-20T04:01:53.377Z,10.20
2023-05-20T04:04:21.540Z,11.00
2023-05-20T04:06:50.121Z,10.80
2023-05-20T04:09:18.087Z,11.10
2023-05-20T04:11:46.384Z,10.80
2023-05-20T04:14:15.396Z,10.90
2023-05-20T04:16:43.682Z,10.40
2023-05-20T04:19:12.955Z,11.20
2023-05-20T04:21:43.401Z,10.60
2023-05-20T04:24:11.859Z,11.20
2023-05-20T04:26:40.213Z,9.80
2023-05-20T04:29:08.287Z,10.30
2023-05-20T04:31:36.835Z,11.20
2023-05-20T04:34:04.889Z,10.50
2023-05-20T04:36:34.712Z,11.30
2023-05-20T04:39:06.005Z,11.20
2023-05-20T04:41:34.158Z,10.30
2023-05-20T04:44:02.510Z,10.70
2023-05-20T04:46:31.803Z,10.70
2023-05-20T04:49:01.013Z,11.10
2023-05-20T04:51:30.266Z,10.70
2023-05-20T04:53:59.134Z,10.50
2023-05-20T04:56:29.710Z,11.10
2023-05-20T04:58:58.590Z,10.80
2023-05-20T05:01:26.739Z,9.70
2023-05-20T05:03:55.069Z,10.70
2023-05-20T05:06:23.453Z,10.90
2023-05-20T05:08:51.422Z,11.30
2023-05-20T05:11:19.932Z,11.90
2023-05-20T05:13:48.174Z,11.80
2023-05-20T05:16:16.351Z,10.60
2023-05-20T05:18:44.381Z,10.80
2023-05-20T05:21:12.455Z,10.30
2023-05-20T05:23:42.597Z,11.10
2023-05-20T05:26:11.091Z,12.00
2023-05-20T05:28:41.365Z,11.50
2023-05-20T05:31:12.199Z,10.40
2023-05-20T05:33:40.319Z,10.00
2023-05-20T05:36:09.028Z,11.10
2023-05-20T05:38:37.319Z,10.60
2023-05-20T05:41:05.483Z,10.60
2023-05-20T05:43:35.746Z,10.40
2023-05-20T05:46:05.439Z,10.80
2023-05-20T05:48:33.690Z,10.70
2023-05-20T05:51:01.746Z,10.90
2023-05-20T05:53:32.386Z,10.90
2023-05-20T05:56:00.501Z,10.20
2023-05-20T05:58:29.137Z,10.70
2023-05-20T06:00:57.620Z,10.50
2023-05-20T06:03:25.783Z,11.10
2023-05-20T06:05:54.734Z,11.00
2023-05-20T06:08:23.266Z,10.20
2023-05-20T06:10:51.585Z,10.80
2023-05-20T06:13:20.796Z,10.80
2023-05-20T06:15:53.797Z,11.00
2023-05-20T06:18:21.890Z,11.90
2023-05-20T06:20:58.537Z,11.00
2023-05-20T06:23:27.058Z,11.30
2023-05-20T06:26:00.205Z,10.70
2023-05-20T06:28:30.303Z,10.90
2023-05-20T06:30:58.949Z,11.00
2023-05-20T06:33:29.892Z,11.20
2023-05-20T06:36:03.629Z,11.20
2023-05-20T06:38:32.271Z,10.60
2023-05-20T06:41:01.083Z,11.50
2023-05-20T06:43:29.515Z,11.50
2023-05-20T06:46:12.451Z,9.80
2023-05-20T06:48:48.925Z,10.40
2023-05-20T06:51:18.073Z,10.00
2023-05-20T06:53:48.589Z,10.10
2023-05-20T06:56:17.555Z,9.60
2023-05-20T06:58:45.657Z,9.40
2023-05-20T07:01:16.023Z,11.30
2023-05-20T07:03:46.129Z,10.80
2023-05-20T07:06:14.433Z,9.90
2023-05-20T07:08:45.317Z,9.60
2023-05-20T07:11:13.922Z,9.70
2023-05-20T07:13:42.083Z,9.40
2023-05-20T07:16:15.100Z,9.80
2023-05-20T07:18:47.314Z,8.80
2023-05-20T07:21:16.265Z,8.80
2023-05-20T07:23:58.972Z,9.10
2023-05-20T07:26:28.246Z,8.40
2023-05-20T07:28:56.361Z,8.40
2023-05-20T07:31:24.758Z,8.80
2023-05-20T07:33:54.446Z,9.10
2023-05-20T07:36:25.582Z,8.40
2023-05-20T07:39:03.195Z,9.40
2023-05-20T07:41:36.910Z,9.60
2023-05-20T07:44:12.483Z,9.50
2023-05-20T07:46:43.624Z,9.00
2023-05-20T07:49:12.654Z,8.90
2023-05-20T07:51:41.713Z,9.20
2023-05-20T07:54:10.865Z,8.60
2023-05-20T07:56:39.013Z,8.10
2023-05-20T07:59:12.173Z,7.10
2023-05-20T08:01:46.098Z,7.00
2023-05-20T08:04:16.475Z,7.60
2023-05-20T08:06:46.890Z,6.60
2023-05-20T08:09:21.813Z,5.90
2023-05-20T08:11:51.907Z,6.40
2023-05-20T08:14:20.316Z,6.70
2023-05-20T08:16:53.817Z,6.50
2023-05-20T08:19:23.930Z,6.90
2023-05-20T08:21:52.610Z,11.50
2023-05-20T08:24:21.532Z,7.20
2023-05-20T08:26:50.629Z,7.70
2023-05-20T08:29:19.385Z,6.90
2023-05-20T08:31:49.223Z,7.20
2023-05-20T08:34:17.656Z,7.10
2023-05-20T08:36:46.216Z,6.60
2023-05-20T08:39:15.376Z,7.60
2023-05-20T08:41:44.207Z,7.90
2023-05-20T08:44:13.722Z,8.50
2023-05-20T08:46:44.242Z,7.50
2023-05-20T08:49:14.587Z,7.20
2023-05-20T08:51:43.204Z,6.70
2023-05-20T08:54:17.014Z,7.30
2023-05-20T08:56:45.995Z,7.60
2023-05-20T08:59:17.498Z,10.10
2023-05-20T09:01:46.210Z,7.40
2023-05-20T09:04:14.356Z,8.00
2023-05-20T09:06:47.947Z,5.90
2023-05-20T09:09:16.146Z,6.00
2023-05-20T09:11:44.591Z,11.40
2023-05-20T09:14:12.758Z,6.70
2023-05-20T09:16:41.696Z,6.40
2023-05-20T09:19:11.113Z,6.40
2023-05-20T09:21:42.288Z,6.30
2023-05-20T09:24:10.359Z,6.30
2023-05-20T09:26:38.585Z,6.70
2023-05-20T09:29:08.944Z,6.40
2023-05-20T09:31:40.687Z,6.70
2023-05-20T09:34:09.815Z,6.60
2023-05-20T09:36:40.103Z,6.30
2023-05-20T09:39:12.295Z,6.60
2023-05-20T09:42:03.932Z,7.20
2023-05-20T09:44:34.895Z,6.10
2023-05-20T09:47:06.965Z,6.50
2023-05-20T09:49:38.086Z,6.80
2023-05-20T09:52:08.944Z,7.10
2023-05-20T09:54:37.781Z,6.40
2023-05-20T09:57:08.129Z,5.90
2023-05-20T09:59:39.226Z,6.60
2023-05-20T10:02:09.020Z,6.10
2023-05-20T10:04:43.083Z,6.00
2023-05-20T10:07:42.070Z,6.20
2023-05-20T10:10:15.748Z,6.30
2023-05-20T10:13:14.705Z,6.50
2023-05-20T10:16:07.045Z,6.40
2023-05-20T10:18:47.843Z,6.60
2023-05-20T10:21:17.948Z,9.90
2023-05-20T10:23:46.436Z,6.30
2023-05-20T10:26:14.610Z,6.40
2023-05-20T10:28:43.667Z,6.70
2023-05-20T10:31:22.675Z,6.70
2023-05-20T10:33:59.049Z,6.90
2023-05-20T10:36:29.713Z,5.90
2023-05-20T10:39:01.009Z,6.70
2023-05-20T10:41:29.548Z,6.00
2023-05-20T10:44:07.592Z,5.60
2023-05-20T10:46:48.660Z,6.00
2023-05-20T10:49:34.404Z,6.20
2023-05-20T10:52:04.417Z,6.20
2023-05-20T10:54:47.347Z,6.30
2023-05-20T10:57:18.716Z,6.50
2023-05-20T10:59:47.725Z,8.10
2023-05-20T11:02:17.447Z,6.50
2023-05-20T11:04:49.421Z,6.10
2023-05-20T11:07:28.542Z,5.90
2023-05-20T11:10:01.179Z,5.50
2023-05-20T11:12:31.756Z,5.00
2023-05-20T11:15:00.239Z,6.90
2023-05-20T11:17:28.615Z,5.50
2023-05-20T11:20:00.950Z,6.40
2023-05-20T11:22:29.213Z,5.90
2023-05-20T11:24:57.239Z,4.90
2023-05-20T11:27:25.359Z,5.60
2023-05-20T11:29:54.419Z,5.20
2023-05-20T11:32:23.390Z,6.40
2023-05-20T11:34:52.791Z,5.10
2023-05-20T11:37:22.086Z,4.90
2023-05-20T11:40:13.561Z,5.10
2023-05-20T11:42:45.747Z,11.60
2023-05-20T11:45:14.530Z,6.60
2023-05-20T11:47:42.764Z,5.30
2023-05-20T11:50:18.972Z,5.20
2023-05-20T11:53:00.028Z,5.60
2023-05-20T11:55:28.337Z,5.10
2023-05-20T11:57:59.150Z,4.80
2023-05-20T12:00:31.293Z,4.80
2023-05-20T12:03:04.875Z,4.70
2023-05-20T12:05:33.185Z,4.90
2023-05-20T12:08:01.913Z,5.00
2023-05-20T12:10:31.336Z,4.90
2023-05-20T12:12:59.963Z,4.40
2023-05-20T12:15:30.867Z,5.00
2023-05-20T12:17:59.187Z,4.80
2023-05-20T12:20:27.441Z,4.80
2023-05-20T12:22:55.887Z,4.90
2023-05-20T12:25:24.376Z,4.90
2023-05-20T12:27:53.190Z,4.50
2023-05-20T12:30:23.281Z,4.20
2023-05-20T12:32:52.848Z,4.40
2023-05-20T12:35:39.078Z,4.70
2023-05-20T12:38:07.393Z,6.70
2023-05-20T12:40:37.319Z,5.00
2023-05-20T12:43:06.344Z,5.20
2023-05-20T12:45:34.555Z,7.00
2023-05-20T12:48:10.009Z,5.80
2023-05-20T12:50:39.940Z,4.80
2023-05-20T12:53:10.444Z,7.00
2023-05-20T12:55:39.645Z,5.80
2023-05-20T12:58:10.554Z,9.10
2023-05-20T13:00:39.328Z,11.40
2023-05-20T13:03:07.728Z,13.60
2023-05-20T13:05:36.780Z,7.80
2023-05-20T13:08:05.799Z,6.30
2023-05-20T13:10:34.386Z,5.70
2023-05-20T13:13:02.757Z,5.60
2023-05-20T13:15:33.433Z,5.40
2023-05-20T13:18:06.126Z,6.10
2023-05-20T13:20:34.441Z,4.30
2023-05-20T13:23:03.099Z,6.30
2023-05-20T13:25:32.097Z,5.60
2023-05-20T13:28:01.439Z,4.30
2023-05-20T13:30:30.147Z,5.30
2023-05-20T13:32:58.751Z,5.60
2023-05-20T13:35:26.945Z,5.40
2023-05-20T13:37:55.101Z,7.20
2023-05-20T13:40:23.154Z,5.80
2023-05-20T13:42:51.365Z,8.30
2023-05-20T13:45:23.721Z,9.10
2023-05-20T13:47:51.845Z,7.50
2023-05-20T13:50:20.126Z,6.30
2023-05-20T13:52:48.320Z,7.70
2023-05-20T13:55:16.398Z,6.70
2023-05-20T13:57:44.686Z,6.70
2023-05-20T14:00:15.202Z,8.30
2023-05-20T14:02:43.389Z,7.80
2023-05-20T14:05:11.925Z,7.30
2023-05-20T14:07:40.027Z,6.80
2023-05-20T14:10:09.345Z,6.70
2023-05-20T14:12:38.372Z,6.10
2023-05-20T14:15:07.577Z,6.10
2023-05-20T14:17:35.861Z,6.30
2023-05-20T14:20:04.827Z,7.00
2023-05-20T14:22:36.578Z,8.00
2023-05-20T14:25:05.987Z,6.70
2023-05-20T14:27:35.054Z,6.60
2023-05-20T14:30:03.812Z,5.60
2023-05-20T14:32:33.203Z,5.80
2023-05-20T14:35:01.912Z,6.40
2023-05-20T14:37:30.577Z,5.90
2023-05-20T14:39:58.950Z,6.10
2023-05-20T14:42:27.331Z,6.40
2023-05-20T14:44:55.514Z,6.20
2023-05-20T14:47:24.543Z,6.40
2023-05-20T14:49:53.024Z,5.60
2023-05-20T14:52:21.193Z,6.20
2023-05-20T14:54:50.977Z,6.50
2023-05-20T14:57:21.925Z,7.10
2023-05-20T14:59:52.589Z,6.70
2023-05-20T15:02:21.025Z,6.90
2023-05-20T15:04:49.867Z,7.00
2023-05-20T15:07:18.311Z,7.00
2023-05-20T15:09:50.091Z,6.60
2023-05-20T15:12:20.619Z,6.30
2023-05-20T15:14:48.703Z,5.90
2023-05-20T15:17:17.246Z,5.40
2023-05-20T15:19:45.432Z,6.10
2023-05-20T15:22:13.496Z,6.50
2023-05-20T15:24:41.663Z,6.10
2023-05-20T15:27:09.927Z,6.30
2023-05-20T15:29:38.941Z,6.20
2023-05-20T15:32:09.720Z,5.50
2023-05-20T15:34:37.789Z,5.60
2023-05-20T15:37:06.162Z,6.60
2023-05-20T15:39:37.785Z,6.20
2023-05-20T15:42:06.652Z,5.00
2023-05-20T15:44:36.160Z,5.10
2023-05-20T15:47:06.174Z,5.20
2023-05-20T15:49:34.489Z,5.30
2023-05-20T15:52:04.393Z,4.70
2023-05-20T15:54:35.292Z,5.80
2023-05-20T15:57:03.692Z,5.90
2023-05-20T15:59:32.401Z,6.40
2023-05-20T16:02:01.433Z,7.30
2023-05-20T16:04:31.639Z,8.40
2023-05-20T16:07:01.869Z,6.80
2023-05-20T16:09:30.967Z,6.90
2023-05-20T16:11:59.253Z,7.90
2023-05-20T16:14:28.204Z,8.40
2023-05-20T16:16:56.320Z,7.70
2023-05-20T16:19:24.492Z,7.70
2023-05-20T16:21:52.836Z,7.40
2023-05-20T16:24:21.341Z,7.70
2023-05-20T16:26:49.381Z,7.10
2023-05-20T16:29:18.971Z,7.70
2023-05-20T16:31:47.401Z,7.00
2023-05-20T16:34:16.829Z,8.00
2023-05-20T16:36:47.740Z,7.10
2023-05-20T16:39:16.119Z,7.10
2023-05-20T16:41:44.906Z,7.10
2023-05-20T16:44:13.089Z,7.40
2023-05-20T16:46:41.642Z,7.40
2023-05-20T16:49:09.764Z,6.60
2023-05-20T16:51:38.036Z,7.30
2023-05-20T16:54:08.305Z,8.70
2023-05-20T16:56:37.774Z,7.70
2023-05-20T16:59:06.305Z,7.40
2023-05-20T17:01:34.630Z,7.20
2023-05-20T17:04:04.691Z,6.80
2023-05-20T17:06:34.563Z,6.40
2023-05-20T17:09:04.565Z,6.80
2023-05-20T17:11:34.493Z,9.10
2023-05-20T17:14:03.335Z,8.80
2023-05-20T17:16:32.444Z,7.60
2023-05-20T17:19:01.452Z,7.30
2023-05-20T17:21:29.903Z,8.20
2023-05-20T17:23:58.122Z,7.10
2023-05-20T17:26:26.355Z,7.50
2023-05-20T17:28:57.355Z,7.00
2023-05-20T17:31:26.186Z,7.10
2023-05-20T17:33:54.941Z,9.90
2023-05-20T17:36:23.964Z,10.50
2023-05-20T17:38:52.329Z,8.40
2023-05-20T17:41:21.915Z,9.10
2023-05-20T17:43:50.048Z,11.50
2023-05-20T17:46:18.755Z,11.00
2023-05-20T17:48:46.977Z,8.90
2023-05-20T17:51:15.432Z,9.30
2023-05-20T17:53:43.790Z,11.70
2023-05-20T17:56:11.877Z,8.80
2023-05-20T17:58:40.036Z,11.20
2023-05-20T18:01:11.816Z,10.20
2023-05-20T18:03:40.645Z,10.40
2023-05-20T18:06:08.939Z,9.40
2023-05-20T18:08:37.473Z,9.80
2023-05-20T18:11:05.732Z,10.60
2023-05-20T18:13:35.621Z,10.30
2023-05-20T18:16:05.009Z,8.90
2023-05-20T18:18:33.333Z,8.60
2023-05-20T18:21:01.729Z,8.50
2023-05-20T18:23:29.916Z,8.80
2023-05-20T18:25:58.046Z,8.90
2023-05-20T18:28:26.644Z,9.10
2023-05-20T18:31:00.300Z,9.00
2023-05-20T18:33:28.372Z,8.50
2023-05-20T18:35:56.877Z,11.10
2023-05-20T18:38:26.082Z,11.30
2023-05-20T18:40:55.224Z,11.40
2023-05-20T18:43:23.460Z,11.00
2023-05-20T18:45:51.854Z,15.70
2023-05-20T18:48:26.666Z,17.40
2023-05-20T18:50:57.927Z,14.20
2023-05-20T18:53:26.150Z,11.30
2023-05-20T18:55:54.342Z,11.00
2023-05-20T18:58:22.703Z,10.10
2023-05-20T19:00:51.182Z,9.10
2023-05-20T19:03:19.702Z,9.40
2023-05-20T19:05:48.216Z,9.20
2023-05-20T19:08:16.885Z,9.40
2023-05-20T19:10:44.946Z,9.70
2023-05-20T19:13:13.176Z,11.20
2023-05-20T19:15:41.886Z,9.50
2023-05-20T19:18:10.084Z,9.50
2023-05-20T19:20:39.407Z,10.10
2023-05-20T19:23:07.607Z,10.20
2023-05-20T19:25:36.557Z,10.20
2023-05-20T19:28:06.176Z,10.80
2023-05-20T19:30:37.535Z,10.90
2023-05-20T19:33:06.303Z,11.20
2023-05-20T19:35:37.085Z,11.30
2023-05-20T19:38:06.994Z,11.30
2023-05-20T19:40:36.266Z,11.50
2023-05-20T19:43:04.855Z,11.10
2023-05-20T19:45:33.068Z,11.20
2023-05-20T19:48:01.646Z,13.40
2023-05-20T19:50:30.510Z,12.50
2023-05-20T19:52:59.496Z,12.10
2023-05-20T19:55:27.802Z,12.90
2023-05-20T19:57:56.417Z,13.20
2023-05-20T20:00:24.810Z,12.10
2023-05-20T20:02:53.367Z,11.90
2023-05-20T20:05:23.933Z,11.50
2023-05-20T20:07:52.209Z,12.30
2023-05-20T20:10:22.143Z,13.60
2023-05-20T20:12:50.546Z,14.00
2023-05-20T20:15:20.504Z,12.10
2023-05-20T20:17:52.239Z,12.40
2023-05-20T20:20:20.647Z,12.30
2023-05-20T20:22:48.833Z,12.40
2023-05-20T20:25:17.237Z,12.00
2023-05-20T20:27:45.603Z,13.30
2023-05-20T20:30:14.810Z,12.80
2023-05-20T20:32:42.877Z,13.30
2023-05-20T20:35:11.380Z,12.40
2023-05-20T20:37:39.486Z,12.00
2023-05-20T20:40:13.376Z,12.00
2023-05-20T20:42:45.055Z,13.50
2023-05-20T20:45:15.214Z,13.20
2023-05-20T20:47:45.400Z,13.80
2023-05-20T20:50:13.539Z,12.30
2023-05-20T20:52:42.913Z,12.70
2023-05-20T20:55:12.157Z,11.80
2023-05-20T20:57:42.065Z,12.10
2023-05-20T21:00:17.763Z,11.90
2023-05-20T21:02:48.538Z,13.30
2023-05-20T21:05:16.943Z,12.50
2023-05-20T21:07:53.282Z,12.80
2023-05-20T21:10:22.062Z,11.90
2023-05-20T21:12:50.287Z,12.40
2023-05-20T21:15:18.634Z,12.70
2023-05-20T21:17:47.233Z,12.70
2023-05-20T21:20:19.477Z,12.20
2023-05-20T21:22:51.372Z,12.60
2023-05-20T21:25:20.449Z,11.10
2023-05-20T21:27:48.576Z,10.80
2023-05-20T21:30:17.867Z,12.10
2023-05-20T21:32:46.012Z,12.30
2023-05-20T21:35:16.605Z,12.60
2023-05-20T21:37:44.641Z,12.30
2023-05-20T21:40:13.263Z,10.70
2023-05-20T21:42:41.420Z,11.50
2023-05-20T21:45:10.720Z,12.30
2023-05-20T21:47:39.401Z,11.80
2023-05-20T21:50:09.955Z,12.00
2023-05-20T21:52:39.879Z,11.10
2023-05-20T21:55:10.710Z,11.70
2023-05-20T21:57:38.848Z,11.30
2023-05-20T22:00:15.300Z,11.30
2023-05-20T22:02:43.511Z,11.30
2023-05-20T22:05:12.052Z,11.30
2023-05-20T22:07:47.519Z,11.80
2023-05-20T22:10:17.561Z,11.50
2023-05-20T22:12:45.808Z,12.50
2023-05-20T22:15:14.012Z,11.90
2023-05-20T22:17:42.384Z,12.00
2023-05-20T22:20:11.497Z,12.10
2023-05-20T22:22:39.792Z,12.70
2023-05-20T22:25:09.497Z,12.20
2023-05-20T22:27:38.765Z,11.00
2023-05-20T22:30:08.427Z,11.30
2023-05-20T22:32:37.330Z,11.10
2023-05-20T22:35:06.611Z,11.10
2023-05-20T22:37:37.710Z,10.00
2023-05-20T22:40:06.467Z,9.90
2023-05-20T22:42:34.564Z,9.30
2023-05-20T22:45:02.773Z,10.40
2023-05-20T22:47:31.627Z,10.90
2023-05-20T22:50:02.580Z,11.20
2023-05-20T22:52:32.742Z,10.20
2023-05-20T22:55:00.780Z,10.70
2023-05-20T22:57:29.214Z,9.80
2023-05-20T22:59:58.264Z,10.50
2023-05-20T23:02:27.206Z,10.60
2023-05-20T23:04:56.079Z,10.80
2023-05-20T23:07:24.703Z,10.10
2023-05-20T23:09:52.803Z,10.60
2023-05-20T23:12:20.888Z,10.10
2023-05-20T23:14:48.890Z,10.30
2023-05-20T23:17:16.948Z,10.00
2023-05-20T23:19:44.951Z,10.60
2023-05-20T23:22:14.216Z,10.70
2023-05-20T23:24:45.416Z,10.90
2023-05-20T23:27:13.438Z,10.60
2023-05-20T23:29:42.208Z,10.60
2023-05-20T23:32:10.299Z,10.60
2023-05-20T23:34:41.086Z,10.50
2023-05-20T23:37:09.719Z,9.40
2023-05-20T23:39:38.616Z,11.60
2023-05-20T23:42:06.646Z,11.20
2023-05-20T23:44:34.606Z,10.80
2023-05-20T23:47:04.106Z,10.70
2023-05-20T23:49:32.707Z,11.80
2023-05-20T23:52:01.568Z,10.70
2023-05-20T23:54:30.031Z,12.10
2023-05-20T23:56:58.149Z,11.00
2023-05-20T23:59:26.297Z,11.90
